sensor_id;sensor_type;location;lat;lon;timestamp;P1;durP1;ratioP1;P2;durP2;ratioP2
8407;SDS011;4241;48.452;9.216;2023-04-24T00:02:00;439.27;;;136.20;;
8407;SDS011;4241;48.452;9.216;2023-04-24T00:04:29;439.50;;;136.03;;
8407;SDS011;4241;48.452;9.216;2023-04-24T00:06:58;439.67;;;136.60;;
8407;SDS011;4241;48.452;9.216;2023-04-24T00:09:25;440.43;;;137.93;;
8407;SDS011;4241;48.452;9.216;2023-04-24T00:11:52;439.77;;;137.30;;
8407;SDS011;4241;48.452;9.216;2023-04-24T00:14:19;438.27;;;134.37;;
8407;SDS011;4241;48.452;9.216;2023-04-24T00:16:46;438.93;;;135.73;;
8407;SDS011;4241;48.452;9.216;2023-04-24T00:19:12;438.47;;;135.70;;
8407;SDS011;4241;48.452;9.216;2023-04-24T00:21:39;439.93;;;137.87;;
8407;SDS011;4241;48.452;9.216;2023-04-24T00:24:08;439.40;;;137.87;;
8407;SDS011;4241;48.452;9.216;2023-04-24T00:26:35;438.53;;;137.03;;
8407;SDS011;4241;48.452;9.216;2023-04-24T00:29:02;438.37;;;135.90;;
8407;SDS011;4241;48.452;9.216;2023-04-24T00:31:29;439.93;;;136.90;;
8407;SDS011;4241;48.452;9.216;2023-04-24T00:33:57;437.33;;;136.17;;
8407;SDS011;4241;48.452;9.216;2023-04-24T00:36:24;440.87;;;139.07;;
8407;SDS011;4241;48.452;9.216;2023-04-24T00:38:52;441.00;;;138.97;;
8407;SDS011;4241;48.452;9.216;2023-04-24T00:41:20;439.47;;;138.40;;
8407;SDS011;4241;48.452;9.216;2023-04-24T00:43:47;439.80;;;138.93;;
8407;SDS011;4241;48.452;9.216;2023-04-24T00:46:14;438.80;;;137.07;;
8407;SDS011;4241;48.452;9.216;2023-04-24T00:48:41;440.10;;;137.40;;
8407;SDS011;4241;48.452;9.216;2023-04-24T00:51:08;439.23;;;138.63;;
8407;SDS011;4241;48.452;9.216;2023-04-24T00:53:35;438.77;;;135.90;;
8407;SDS011;4241;48.452;9.216;2023-04-24T00:56:02;436.20;;;134.90;;
8407;SDS011;4241;48.452;9.216;2023-04-24T00:58:31;438.97;;;137.17;;
8407;SDS011;4241;48.452;9.216;2023-04-24T01:00:58;439.20;;;136.97;;
8407;SDS011;4241;48.452;9.216;2023-04-24T01:03:27;435.03;;;134.00;;
8407;SDS011;4241;48.452;9.216;2023-04-24T01:05:56;438.73;;;136.17;;
8407;SDS011;4241;48.452;9.216;2023-04-24T01:08:23;437.23;;;135.50;;
8407;SDS011;4241;48.452;9.216;2023-04-24T01:10:52;437.87;;;135.80;;
8407;SDS011;4241;48.452;9.216;2023-04-24T01:13:19;435.83;;;134.40;;
8407;SDS011;4241;48.452;9.216;2023-04-24T01:15:48;439.00;;;137.13;;
8407;SDS011;4241;48.452;9.216;2023-04-24T01:18:15;440.13;;;137.37;;
8407;SDS011;4241;48.452;9.216;2023-04-24T01:20:42;440.03;;;138.83;;
8407;SDS011;4241;48.452;9.216;2023-04-24T01:23:11;438.40;;;135.73;;
8407;SDS011;4241;48.452;9.216;2023-04-24T01:25:38;443.17;;;140.60;;
8407;SDS011;4241;48.452;9.216;2023-04-24T01:28:05;437.33;;;134.80;;
8407;SDS011;4241;48.452;9.216;2023-04-24T01:30:32;438.00;;;136.57;;
8407;SDS011;4241;48.452;9.216;2023-04-24T01:32:59;436.10;;;134.43;;
8407;SDS011;4241;48.452;9.216;2023-04-24T01:35:26;437.30;;;135.07;;
8407;SDS011;4241;48.452;9.216;2023-04-24T01:37:53;438.37;;;135.77;;
8407;SDS011;4241;48.452;9.216;2023-04-24T01:40:21;437.13;;;134.83;;
8407;SDS011;4241;48.452;9.216;2023-04-24T01:42:48;433.77;;;132.30;;
8407;SDS011;4241;48.452;9.216;2023-04-24T01:45:15;439.47;;;136.87;;
8407;SDS011;4241;48.452;9.216;2023-04-24T01:47:43;437.03;;;134.27;;
8407;SDS011;4241;48.452;9.216;2023-04-24T01:50:11;439.67;;;136.57;;
8407;SDS011;4241;48.452;9.216;2023-04-24T01:52:38;437.67;;;134.63;;
8407;SDS011;4241;48.452;9.216;2023-04-24T01:55:05;437.13;;;135.43;;
8407;SDS011;4241;48.452;9.216;2023-04-24T01:57:34;434.37;;;133.23;;
8407;SDS011;4241;48.452;9.216;2023-04-24T02:00:02;438.90;;;136.67;;
8407;SDS011;4241;48.452;9.216;2023-04-24T02:02:32;437.23;;;134.03;;
8407;SDS011;4241;48.452;9.216;2023-04-24T02:04:59;438.43;;;134.83;;
8407;SDS011;4241;48.452;9.216;2023-04-24T02:07:27;438.83;;;135.87;;
8407;SDS011;4241;48.452;9.216;2023-04-24T02:09:54;437.53;;;134.43;;
8407;SDS011;4241;48.452;9.216;2023-04-24T02:12:21;435.43;;;132.83;;
8407;SDS011;4241;48.452;9.216;2023-04-24T02:14:49;436.73;;;133.67;;
8407;SDS011;4241;48.452;9.216;2023-04-24T02:17:16;436.10;;;133.93;;
8407;SDS011;4241;48.452;9.216;2023-04-24T02:19:44;436.23;;;134.13;;
8407;SDS011;4241;48.452;9.216;2023-04-24T02:22:11;436.47;;;133.93;;
8407;SDS011;4241;48.452;9.216;2023-04-24T02:24:37;437.17;;;135.90;;
8407;SDS011;4241;48.452;9.216;2023-04-24T02:27:05;436.63;;;134.57;;
8407;SDS011;4241;48.452;9.216;2023-04-24T02:29:32;437.47;;;135.37;;
8407;SDS011;4241;48.452;9.216;2023-04-24T02:32:00;437.93;;;135.10;;
8407;SDS011;4241;48.452;9.216;2023-04-24T02:34:27;437.23;;;133.80;;
8407;SDS011;4241;48.452;9.216;2023-04-24T02:36:54;436.13;;;133.73;;
8407;SDS011;4241;48.452;9.216;2023-04-24T02:39:20;436.97;;;134.13;;
8407;SDS011;4241;48.452;9.216;2023-04-24T02:41:47;438.10;;;135.27;;
8407;SDS011;4241;48.452;9.216;2023-04-24T02:44:14;436.17;;;133.50;;
8407;SDS011;4241;48.452;9.216;2023-04-24T02:46:42;435.23;;;132.90;;
8407;SDS011;4241;48.452;9.216;2023-04-24T02:49:10;435.13;;;133.23;;
8407;SDS011;4241;48.452;9.216;2023-04-24T02:51:37;434.27;;;131.30;;
8407;SDS011;4241;48.452;9.216;2023-04-24T02:54:06;435.33;;;132.60;;
8407;SDS011;4241;48.452;9.216;2023-04-24T02:56:33;436.37;;;133.33;;
8407;SDS011;4241;48.452;9.216;2023-04-24T02:59:01;436.53;;;133.77;;
8407;SDS011;4241;48.452;9.216;2023-04-24T03:01:27;436.17;;;133.30;;
8407;SDS011;4241;48.452;9.216;2023-04-24T03:03:54;435.40;;;133.10;;
8407;SDS011;4241;48.452;9.216;2023-04-24T03:06:22;434.87;;;131.60;;
8407;SDS011;4241;48.452;9.216;2023-04-24T03:08:49;437.07;;;133.70;;
8407;SDS011;4241;48.452;9.216;2023-04-24T03:11:16;435.27;;;131.67;;
8407;SDS011;4241;48.452;9.216;2023-04-24T03:13:43;435.07;;;132.20;;
8407;SDS011;4241;48.452;9.216;2023-04-24T03:16:10;434.00;;;131.13;;
8407;SDS011;4241;48.452;9.216;2023-04-24T03:18:37;437.80;;;133.63;;
8407;SDS011;4241;48.452;9.216;2023-04-24T03:21:03;435.10;;;132.50;;
8407;SDS011;4241;48.452;9.216;2023-04-24T03:23:32;435.30;;;132.47;;
8407;SDS011;4241;48.452;9.216;2023-04-24T03:25:58;435.63;;;133.80;;
8407;SDS011;4241;48.452;9.216;2023-04-24T03:28:25;434.40;;;131.03;;
8407;SDS011;4241;48.452;9.216;2023-04-24T03:30:52;435.73;;;133.17;;
8407;SDS011;4241;48.452;9.216;2023-04-24T03:33:19;436.50;;;133.37;;
8407;SDS011;4241;48.452;9.216;2023-04-24T03:35:46;439.07;;;135.17;;
8407;SDS011;4241;48.452;9.216;2023-04-24T03:38:13;436.10;;;131.93;;
8407;SDS011;4241;48.452;9.216;2023-04-24T03:40:42;437.07;;;133.70;;
8407;SDS011;4241;48.452;9.216;2023-04-24T03:43:09;438.20;;;135.17;;
8407;SDS011;4241;48.452;9.216;2023-04-24T03:45:36;441.17;;;137.13;;
8407;SDS011;4241;48.452;9.216;2023-04-24T03:48:03;434.30;;;131.70;;
8407;SDS011;4241;48.452;9.216;2023-04-24T03:50:30;436.77;;;133.10;;
8407;SDS011;4241;48.452;9.216;2023-04-24T03:52:57;436.87;;;133.57;;
8407;SDS011;4241;48.452;9.216;2023-04-24T03:55:24;441.80;;;138.67;;
8407;SDS011;4241;48.452;9.216;2023-04-24T03:57:53;435.57;;;132.87;;
8407;SDS011;4241;48.452;9.216;2023-04-24T04:00:19;436.83;;;133.53;;
8407;SDS011;4241;48.452;9.216;2023-04-24T04:02:46;435.40;;;132.93;;
8407;SDS011;4241;48.452;9.216;2023-04-24T04:05:13;436.00;;;133.07;;
8407;SDS011;4241;48.452;9.216;2023-04-24T04:07:41;435.60;;;132.37;;
8407;SDS011;4241;48.452;9.216;2023-04-24T04:10:08;434.80;;;132.60;;
8407;SDS011;4241;48.452;9.216;2023-04-24T04:12:35;435.87;;;133.00;;
8407;SDS011;4241;48.452;9.216;2023-04-24T04:15:04;435.93;;;131.73;;
8407;SDS011;4241;48.452;9.216;2023-04-24T04:17:31;436.93;;;133.53;;
8407;SDS011;4241;48.452;9.216;2023-04-24T04:19:58;435.17;;;131.97;;
8407;SDS011;4241;48.452;9.216;2023-04-24T04:22:26;434.97;;;131.90;;
8407;SDS011;4241;48.452;9.216;2023-04-24T04:24:53;435.33;;;132.17;;
8407;SDS011;4241;48.452;9.216;2023-04-24T04:27:20;435.57;;;132.07;;
8407;SDS011;4241;48.452;9.216;2023-04-24T04:29:46;432.03;;;130.60;;
8407;SDS011;4241;48.452;9.216;2023-04-24T04:32:14;434.20;;;130.53;;
8407;SDS011;4241;48.452;9.216;2023-04-24T04:34:42;434.97;;;131.90;;
8407;SDS011;4241;48.452;9.216;2023-04-24T04:37:10;434.73;;;129.93;;
8407;SDS011;4241;48.452;9.216;2023-04-24T04:39:37;433.60;;;131.03;;
8407;SDS011;4241;48.452;9.216;2023-04-24T04:42:04;434.13;;;130.57;;
8407;SDS011;4241;48.452;9.216;2023-04-24T04:44:32;436.23;;;133.70;;
8407;SDS011;4241;48.452;9.216;2023-04-24T04:47:01;433.67;;;130.60;;
8407;SDS011;4241;48.452;9.216;2023-04-24T04:49:31;436.10;;;133.60;;
8407;SDS011;4241;48.452;9.216;2023-04-24T04:51:59;435.43;;;131.73;;
8407;SDS011;4241;48.452;9.216;2023-04-24T04:54:26;434.33;;;132.30;;
8407;SDS011;4241;48.452;9.216;2023-04-24T04:56:53;435.03;;;132.63;;
8407;SDS011;4241;48.452;9.216;2023-04-24T04:59:20;435.60;;;131.60;;
8407;SDS011;4241;48.452;9.216;2023-04-24T05:01:47;432.97;;;128.90;;
8407;SDS011;4241;48.452;9.216;2023-04-24T05:04:14;434.30;;;130.80;;
8407;SDS011;4241;48.452;9.216;2023-04-24T05:06:42;432.90;;;128.80;;
8407;SDS011;4241;48.452;9.216;2023-04-24T05:09:09;434.97;;;130.80;;
8407;SDS011;4241;48.452;9.216;2023-04-24T05:11:36;435.53;;;130.90;;
8407;SDS011;4241;48.452;9.216;2023-04-24T05:14:04;433.53;;;130.13;;
8407;SDS011;4241;48.452;9.216;2023-04-24T05:16:31;432.53;;;128.07;;
8407;SDS011;4241;48.452;9.216;2023-04-24T05:18:58;430.87;;;127.73;;
8407;SDS011;4241;48.452;9.216;2023-04-24T05:21:25;429.43;;;126.33;;
8407;SDS011;4241;48.452;9.216;2023-04-24T05:23:53;432.83;;;128.33;;
8407;SDS011;4241;48.452;9.216;2023-04-24T05:26:20;429.70;;;125.80;;
8407;SDS011;4241;48.452;9.216;2023-04-24T05:28:47;432.27;;;128.57;;
8407;SDS011;4241;48.452;9.216;2023-04-24T05:31:14;430.90;;;127.33;;
8407;SDS011;4241;48.452;9.216;2023-04-24T05:33:42;433.60;;;129.47;;
8407;SDS011;4241;48.452;9.216;2023-04-24T05:36:09;449.40;;;145.00;;
8407;SDS011;4241;48.452;9.216;2023-04-24T05:38:36;430.30;;;127.17;;
8407;SDS011;4241;48.452;9.216;2023-04-24T05:41:04;431.70;;;128.93;;
8407;SDS011;4241;48.452;9.216;2023-04-24T05:43:31;429.20;;;126.47;;
8407;SDS011;4241;48.452;9.216;2023-04-24T05:45:58;430.97;;;127.27;;
8407;SDS011;4241;48.452;9.216;2023-04-24T05:48:25;429.40;;;126.13;;
8407;SDS011;4241;48.452;9.216;2023-04-24T05:50:52;433.77;;;130.43;;
8407;SDS011;4241;48.452;9.216;2023-04-24T05:53:19;428.50;;;125.73;;
8407;SDS011;4241;48.452;9.216;2023-04-24T05:55:47;435.23;;;130.23;;
8407;SDS011;4241;48.452;9.216;2023-04-24T05:58:15;428.30;;;126.03;;
8407;SDS011;4241;48.452;9.216;2023-04-24T06:00:42;429.40;;;127.33;;
8407;SDS011;4241;48.452;9.216;2023-04-24T06:03:11;432.40;;;128.63;;
8407;SDS011;4241;48.452;9.216;2023-04-24T06:05:38;431.90;;;128.13;;
8407;SDS011;4241;48.452;9.216;2023-04-24T06:08:05;429.87;;;126.83;;
8407;SDS011;4241;48.452;9.216;2023-04-24T06:10:35;429.63;;;127.53;;
8407;SDS011;4241;48.452;9.216;2023-04-24T06:13:02;430.13;;;127.13;;
8407;SDS011;4241;48.452;9.216;2023-04-24T06:15:31;439.47;;;135.80;;
8407;SDS011;4241;48.452;9.216;2023-04-24T06:17:58;430.43;;;127.50;;
8407;SDS011;4241;48.452;9.216;2023-04-24T06:20:25;431.00;;;128.13;;
8407;SDS011;4241;48.452;9.216;2023-04-24T06:22:51;429.13;;;126.80;;
8407;SDS011;4241;48.452;9.216;2023-04-24T06:25:20;432.10;;;129.03;;
8407;SDS011;4241;48.452;9.216;2023-04-24T06:27:47;430.77;;;127.17;;
8407;SDS011;4241;48.452;9.216;2023-04-24T06:30:14;432.23;;;128.60;;
8407;SDS011;4241;48.452;9.216;2023-04-24T06:32:42;431.33;;;128.43;;
8407;SDS011;4241;48.452;9.216;2023-04-24T06:35:10;431.93;;;128.93;;
8407;SDS011;4241;48.452;9.216;2023-04-24T06:37:37;432.23;;;128.97;;
8407;SDS011;4241;48.452;9.216;2023-04-24T06:40:05;431.17;;;128.40;;
8407;SDS011;4241;48.452;9.216;2023-04-24T06:42:33;432.97;;;130.07;;
8407;SDS011;4241;48.452;9.216;2023-04-24T06:45:00;431.07;;;128.77;;
8407;SDS011;4241;48.452;9.216;2023-04-24T06:47:28;433.87;;;130.37;;
8407;SDS011;4241;48.452;9.216;2023-04-24T06:49:56;435.30;;;131.07;;
8407;SDS011;4241;48.452;9.216;2023-04-24T06:52:23;435.37;;;131.87;;
8407;SDS011;4241;48.452;9.216;2023-04-24T06:54:50;436.30;;;132.93;;
8407;SDS011;4241;48.452;9.216;2023-04-24T06:57:17;433.73;;;130.03;;
8407;SDS011;4241;48.452;9.216;2023-04-24T06:59:44;436.40;;;132.87;;
8407;SDS011;4241;48.452;9.216;2023-04-24T07:02:11;437.50;;;134.03;;
8407;SDS011;4241;48.452;9.216;2023-04-24T07:04:38;434.37;;;132.20;;
8407;SDS011;4241;48.452;9.216;2023-04-24T07:07:08;436.13;;;133.63;;
8407;SDS011;4241;48.452;9.216;2023-04-24T07:09:38;437.80;;;133.70;;
8407;SDS011;4241;48.452;9.216;2023-04-24T07:12:06;432.90;;;130.57;;
8407;SDS011;4241;48.452;9.216;2023-04-24T07:14:33;436.20;;;133.20;;
8407;SDS011;4241;48.452;9.216;2023-04-24T07:17:01;439.83;;;135.27;;
8407;SDS011;4241;48.452;9.216;2023-04-24T07:19:28;435.13;;;132.13;;
8407;SDS011;4241;48.452;9.216;2023-04-24T07:21:55;436.03;;;132.57;;
8407;SDS011;4241;48.452;9.216;2023-04-24T07:24:24;437.53;;;134.00;;
8407;SDS011;4241;48.452;9.216;2023-04-24T07:26:52;437.30;;;134.73;;
8407;SDS011;4241;48.452;9.216;2023-04-24T07:29:20;439.43;;;136.67;;
8407;SDS011;4241;48.452;9.216;2023-04-24T07:31:47;438.03;;;135.00;;
8407;SDS011;4241;48.452;9.216;2023-04-24T07:34:14;437.37;;;133.27;;
8407;SDS011;4241;48.452;9.216;2023-04-24T07:36:41;436.33;;;133.30;;
8407;SDS011;4241;48.452;9.216;2023-04-24T07:39:08;437.60;;;134.00;;
8407;SDS011;4241;48.452;9.216;2023-04-24T07:41:36;434.67;;;132.57;;
8407;SDS011;4241;48.452;9.216;2023-04-24T07:44:03;434.23;;;131.03;;
8407;SDS011;4241;48.452;9.216;2023-04-24T07:46:30;438.07;;;135.57;;
8407;SDS011;4241;48.452;9.216;2023-04-24T07:48:57;436.90;;;134.23;;
8407;SDS011;4241;48.452;9.216;2023-04-24T07:51:24;437.70;;;135.03;;
8407;SDS011;4241;48.452;9.216;2023-04-24T07:53:52;436.90;;;135.70;;
8407;SDS011;4241;48.452;9.216;2023-04-24T07:56:19;438.13;;;134.90;;
8407;SDS011;4241;48.452;9.216;2023-04-24T07:58:47;435.30;;;134.10;;
8407;SDS011;4241;48.452;9.216;2023-04-24T08:01:14;438.23;;;135.50;;
8407;SDS011;4241;48.452;9.216;2023-04-24T08:03:41;437.37;;;134.57;;
8407;SDS011;4241;48.452;9.216;2023-04-24T08:06:08;441.57;;;138.10;;
8407;SDS011;4241;48.452;9.216;2023-04-24T08:08:35;436.67;;;134.97;;
8407;SDS011;4241;48.452;9.216;2023-04-24T08:11:02;439.70;;;137.30;;
8407;SDS011;4241;48.452;9.216;2023-04-24T08:13:29;440.97;;;137.80;;
8407;SDS011;4241;48.452;9.216;2023-04-24T08:15:57;441.57;;;138.87;;
8407;SDS011;4241;48.452;9.216;2023-04-24T08:18:24;443.27;;;140.57;;
8407;SDS011;4241;48.452;9.216;2023-04-24T08:20:51;441.77;;;139.93;;
8407;SDS011;4241;48.452;9.216;2023-04-24T08:23:18;445.50;;;142.93;;
8407;SDS011;4241;48.452;9.216;2023-04-24T08:25:45;443.73;;;142.03;;
8407;SDS011;4241;48.452;9.216;2023-04-24T08:28:12;446.70;;;144.43;;
8407;SDS011;4241;48.452;9.216;2023-04-24T08:30:45;445.53;;;144.70;;
8407;SDS011;4241;48.452;9.216;2023-04-24T08:33:13;443.60;;;141.30;;
8407;SDS011;4241;48.452;9.216;2023-04-24T08:35:40;445.80;;;143.87;;
8407;SDS011;4241;48.452;9.216;2023-04-24T08:38:07;442.73;;;140.43;;
8407;SDS011;4241;48.452;9.216;2023-04-24T08:40:34;442.93;;;140.10;;
8407;SDS011;4241;48.452;9.216;2023-04-24T08:43:01;439.90;;;138.13;;
8407;SDS011;4241;48.452;9.216;2023-04-24T08:45:29;447.80;;;143.87;;
8407;SDS011;4241;48.452;9.216;2023-04-24T08:47:56;441.40;;;137.90;;
8407;SDS011;4241;48.452;9.216;2023-04-24T08:50:27;434.93;;;132.77;;
8407;SDS011;4241;48.452;9.216;2023-04-24T08:52:55;437.67;;;134.43;;
8407;SDS011;4241;48.452;9.216;2023-04-24T08:55:23;436.37;;;133.53;;
8407;SDS011;4241;48.452;9.216;2023-04-24T08:57:51;434.47;;;130.03;;
8407;SDS011;4241;48.452;9.216;2023-04-24T09:00:20;438.60;;;136.00;;
8407;SDS011;4241;48.452;9.216;2023-04-24T09:02:48;436.97;;;134.30;;
8407;SDS011;4241;48.452;9.216;2023-04-24T09:05:16;439.03;;;136.70;;
8407;SDS011;4241;48.452;9.216;2023-04-24T09:07:46;436.67;;;134.90;;
8407;SDS011;4241;48.452;9.216;2023-04-24T09:10:20;439.43;;;136.47;;
8407;SDS011;4241;48.452;9.216;2023-04-24T09:12:47;436.70;;;133.73;;
8407;SDS011;4241;48.452;9.216;2023-04-24T09:15:16;437.60;;;134.80;;
8407;SDS011;4241;48.452;9.216;2023-04-24T09:17:43;439.97;;;137.20;;
8407;SDS011;4241;48.452;9.216;2023-04-24T09:20:10;438.80;;;137.33;;
8407;SDS011;4241;48.452;9.216;2023-04-24T09:22:37;439.83;;;138.20;;
8407;SDS011;4241;48.452;9.216;2023-04-24T09:25:06;441.73;;;138.07;;
8407;SDS011;4241;48.452;9.216;2023-04-24T09:27:34;441.43;;;138.50;;
8407;SDS011;4241;48.452;9.216;2023-04-24T09:30:01;443.07;;;141.30;;
8407;SDS011;4241;48.452;9.216;2023-04-24T09:32:28;442.27;;;138.97;;
8407;SDS011;4241;48.452;9.216;2023-04-24T09:35:06;442.23;;;139.57;;
8407;SDS011;4241;48.452;9.216;2023-04-24T09:37:37;440.53;;;137.30;;
8407;SDS011;4241;48.452;9.216;2023-04-24T09:40:11;437.30;;;133.60;;
8407;SDS011;4241;48.452;9.216;2023-04-24T09:42:43;437.03;;;133.80;;
8407;SDS011;4241;48.452;9.216;2023-04-24T09:45:11;436.00;;;132.03;;
8407;SDS011;4241;48.452;9.216;2023-04-24T09:47:38;435.50;;;132.87;;
8407;SDS011;4241;48.452;9.216;2023-04-24T09:50:09;434.00;;;131.40;;
8407;SDS011;4241;48.452;9.216;2023-04-24T09:52:41;436.03;;;133.13;;
8407;SDS011;4241;48.452;9.216;2023-04-24T09:55:20;435.60;;;133.63;;
8407;SDS011;4241;48.452;9.216;2023-04-24T09:57:50;438.20;;;136.77;;
8407;SDS011;4241;48.452;9.216;2023-04-24T10:00:18;441.27;;;136.90;;
8407;SDS011;4241;48.452;9.216;2023-04-24T10:02:51;439.90;;;137.07;;
8407;SDS011;4241;48.452;9.216;2023-04-24T10:05:22;444.77;;;142.70;;
8407;SDS011;4241;48.452;9.216;2023-04-24T10:07:50;441.80;;;138.77;;
8407;SDS011;4241;48.452;9.216;2023-04-24T10:10:17;443.83;;;142.40;;
8407;SDS011;4241;48.452;9.216;2023-04-24T10:12:45;444.87;;;142.83;;
8407;SDS011;4241;48.452;9.216;2023-04-24T10:15:12;473.27;;;170.53;;
8407;SDS011;4241;48.452;9.216;2023-04-24T10:17:42;443.30;;;141.43;;
8407;SDS011;4241;48.452;9.216;2023-04-24T10:20:17;442.30;;;140.67;;
8407;SDS011;4241;48.452;9.216;2023-04-24T10:22:45;443.67;;;142.73;;
8407;SDS011;4241;48.452;9.216;2023-04-24T10:25:15;447.63;;;145.77;;
8407;SDS011;4241;48.452;9.216;2023-04-24T10:27:42;447.47;;;145.43;;
8407;SDS011;4241;48.452;9.216;2023-04-24T10:30:14;448.60;;;148.70;;
8407;SDS011;4241;48.452;9.216;2023-04-24T10:32:41;446.17;;;146.60;;
8407;SDS011;4241;48.452;9.216;2023-04-24T10:35:08;450.57;;;150.67;;
8407;SDS011;4241;48.452;9.216;2023-04-24T10:37:36;445.80;;;146.43;;
8407;SDS011;4241;48.452;9.216;2023-04-24T10:40:10;447.10;;;148.87;;
8407;SDS011;4241;48.452;9.216;2023-04-24T10:42:39;449.80;;;151.90;;
8407;SDS011;4241;48.452;9.216;2023-04-24T10:45:16;455.47;;;158.33;;
8407;SDS011;4241;48.452;9.216;2023-04-24T10:47:53;453.87;;;156.50;;
8407;SDS011;4241;48.452;9.216;2023-04-24T10:50:25;456.40;;;161.53;;
8407;SDS011;4241;48.452;9.216;2023-04-24T10:52:53;459.47;;;165.10;;
8407;SDS011;4241;48.452;9.216;2023-04-24T10:58:08;457.50;;;164.97;;
8407;SDS011;4241;48.452;9.216;2023-04-24T11:00:37;455.37;;;161.80;;
8407;SDS011;4241;48.452;9.216;2023-04-24T11:03:05;453.67;;;156.97;;
8407;SDS011;4241;48.452;9.216;2023-04-24T11:05:52;459.27;;;163.33;;
8407;SDS011;4241;48.452;9.216;2023-04-24T11:08:22;451.60;;;153.37;;
8407;SDS011;4241;48.452;9.216;2023-04-24T11:10:55;450.93;;;153.47;;
8407;SDS011;4241;48.452;9.216;2023-04-24T11:13:24;451.43;;;150.93;;
8407;SDS011;4241;48.452;9.216;2023-04-24T11:18:45;441.73;;;140.83;;
8407;SDS011;4241;48.452;9.216;2023-04-24T11:21:19;442.97;;;140.23;;
8407;SDS011;4241;48.452;9.216;2023-04-24T11:23:46;442.87;;;139.93;;
8407;SDS011;4241;48.452;9.216;2023-04-24T11:26:17;440.73;;;138.13;;
8407;SDS011;4241;48.452;9.216;2023-04-24T11:28:48;438.33;;;136.10;;
8407;SDS011;4241;48.452;9.216;2023-04-24T11:31:35;441.00;;;138.63;;
8407;SDS011;4241;48.452;9.216;2023-04-24T11:34:09;441.63;;;138.67;;
8407;SDS011;4241;48.452;9.216;2023-04-24T11:36:37;443.20;;;139.63;;
8407;SDS011;4241;48.452;9.216;2023-04-24T11:39:04;440.40;;;138.73;;
8407;SDS011;4241;48.452;9.216;2023-04-24T11:41:31;441.67;;;139.67;;
8407;SDS011;4241;48.452;9.216;2023-04-24T11:43:59;443.80;;;141.10;;
8407;SDS011;4241;48.452;9.216;2023-04-24T11:46:27;441.17;;;138.53;;
8407;SDS011;4241;48.452;9.216;2023-04-24T11:48:56;441.67;;;139.97;;
8407;SDS011;4241;48.452;9.216;2023-04-24T11:51:23;441.67;;;140.47;;
8407;SDS011;4241;48.452;9.216;2023-04-24T11:53:50;441.43;;;139.73;;
8407;SDS011;4241;48.452;9.216;2023-04-24T11:56:17;441.73;;;140.23;;
8407;SDS011;4241;48.452;9.216;2023-04-24T11:58:45;442.83;;;140.87;;
8407;SDS011;4241;48.452;9.216;2023-04-24T12:01:12;442.83;;;140.20;;
8407;SDS011;4241;48.452;9.216;2023-04-24T12:03:39;441.30;;;140.03;;
8407;SDS011;4241;48.452;9.216;2023-04-24T12:06:10;439.97;;;137.77;;
8407;SDS011;4241;48.452;9.216;2023-04-24T12:08:37;440.87;;;138.23;;
8407;SDS011;4241;48.452;9.216;2023-04-24T12:11:05;442.30;;;140.23;;
8407;SDS011;4241;48.452;9.216;2023-04-24T12:13:33;440.83;;;138.50;;
8407;SDS011;4241;48.452;9.216;2023-04-24T12:16:01;438.77;;;136.67;;
8407;SDS011;4241;48.452;9.216;2023-04-24T12:18:29;436.23;;;134.83;;
8407;SDS011;4241;48.452;9.216;2023-04-24T12:23:43;439.67;;;137.77;;
8407;SDS011;4241;48.452;9.216;2023-04-24T12:26:10;440.57;;;137.97;;
8407;SDS011;4241;48.452;9.216;2023-04-24T12:28:38;442.13;;;138.33;;
8407;SDS011;4241;48.452;9.216;2023-04-24T12:31:06;441.03;;;136.87;;
8407;SDS011;4241;48.452;9.216;2023-04-24T12:33:33;436.70;;;135.60;;
8407;SDS011;4241;48.452;9.216;2023-04-24T12:36:01;436.47;;;135.13;;
8407;SDS011;4241;48.452;9.216;2023-04-24T12:38:29;439.77;;;137.57;;
8407;SDS011;4241;48.452;9.216;2023-04-24T12:41:02;439.53;;;137.43;;
8407;SDS011;4241;48.452;9.216;2023-04-24T12:43:30;441.07;;;138.67;;
8407;SDS011;4241;48.452;9.216;2023-04-24T12:45:57;444.53;;;142.20;;
8407;SDS011;4241;48.452;9.216;2023-04-24T12:48:25;446.27;;;144.47;;
8407;SDS011;4241;48.452;9.216;2023-04-24T12:50:52;446.13;;;144.03;;
8407;SDS011;4241;48.452;9.216;2023-04-24T12:53:19;443.23;;;142.03;;
8407;SDS011;4241;48.452;9.216;2023-04-24T12:55:47;441.67;;;140.80;;
8407;SDS011;4241;48.452;9.216;2023-04-24T12:58:18;443.70;;;142.57;;
8407;SDS011;4241;48.452;9.216;2023-04-24T13:00:45;445.33;;;143.77;;
8407;SDS011;4241;48.452;9.216;2023-04-24T13:03:12;445.53;;;145.60;;
8407;SDS011;4241;48.452;9.216;2023-04-24T13:05:39;448.70;;;148.20;;
8407;SDS011;4241;48.452;9.216;2023-04-24T13:08:06;443.80;;;142.50;;
8407;SDS011;4241;48.452;9.216;2023-04-24T13:10:33;446.00;;;144.53;;
8407;SDS011;4241;48.452;9.216;2023-04-24T13:13:01;444.63;;;143.63;;
8407;SDS011;4241;48.452;9.216;2023-04-24T13:15:28;453.07;;;152.20;;
8407;SDS011;4241;48.452;9.216;2023-04-24T13:17:55;444.83;;;143.57;;
8407;SDS011;4241;48.452;9.216;2023-04-24T13:20:22;445.97;;;143.73;;
8407;SDS011;4241;48.452;9.216;2023-04-24T13:22:49;446.73;;;145.13;;
8407;SDS011;4241;48.452;9.216;2023-04-24T13:25:16;449.87;;;149.33;;
8407;SDS011;4241;48.452;9.216;2023-04-24T13:27:45;448.53;;;146.23;;
8407;SDS011;4241;48.452;9.216;2023-04-24T13:30:13;449.63;;;149.93;;
8407;SDS011;4241;48.452;9.216;2023-04-24T13:32:40;452.60;;;154.10;;
8407;SDS011;4241;48.452;9.216;2023-04-24T13:35:10;453.47;;;154.87;;
8407;SDS011;4241;48.452;9.216;2023-04-24T13:37:37;455.27;;;157.27;;
8407;SDS011;4241;48.452;9.216;2023-04-24T13:40:04;452.93;;;153.63;;
8407;SDS011;4241;48.452;9.216;2023-04-24T13:42:32;452.77;;;154.77;;
8407;SDS011;4241;48.452;9.216;2023-04-24T13:44:59;452.20;;;153.80;;
8407;SDS011;4241;48.452;9.216;2023-04-24T13:47:28;451.53;;;151.67;;
8407;SDS011;4241;48.452;9.216;2023-04-24T13:49:54;450.73;;;150.20;;
8407;SDS011;4241;48.452;9.216;2023-04-24T13:52:21;447.77;;;146.80;;
8407;SDS011;4241;48.452;9.216;2023-04-24T13:54:48;447.13;;;147.63;;
8407;SDS011;4241;48.452;9.216;2023-04-24T13:57:15;450.63;;;149.93;;
8407;SDS011;4241;48.452;9.216;2023-04-24T13:59:42;448.77;;;148.57;;
8407;SDS011;4241;48.452;9.216;2023-04-24T14:02:10;448.20;;;146.83;;
8407;SDS011;4241;48.452;9.216;2023-04-24T14:04:38;450.37;;;148.13;;
8407;SDS011;4241;48.452;9.216;2023-04-24T14:07:05;448.70;;;146.87;;
8407;SDS011;4241;48.452;9.216;2023-04-24T14:09:33;447.37;;;144.90;;
8407;SDS011;4241;48.452;9.216;2023-04-24T14:12:00;444.73;;;142.20;;
8407;SDS011;4241;48.452;9.216;2023-04-24T14:14:28;447.87;;;145.20;;
8407;SDS011;4241;48.452;9.216;2023-04-24T14:16:55;443.20;;;141.43;;
8407;SDS011;4241;48.452;9.216;2023-04-24T14:19:23;444.30;;;142.50;;
8407;SDS011;4241;48.452;9.216;2023-04-24T14:21:51;446.93;;;144.37;;
8407;SDS011;4241;48.452;9.216;2023-04-24T14:24:18;441.43;;;137.93;;
8407;SDS011;4241;48.452;9.216;2023-04-24T14:26:45;442.47;;;140.23;;
8407;SDS011;4241;48.452;9.216;2023-04-24T14:29:12;443.60;;;141.80;;
8407;SDS011;4241;48.452;9.216;2023-04-24T14:31:39;443.70;;;141.63;;
8407;SDS011;4241;48.452;9.216;2023-04-24T14:34:06;443.47;;;140.50;;